GVBAGVNP

Guest
Details From GVBA - Rabil
To GVNP - PRAIA INTERNATIONAL
Flight Number -
Tags generated
Created
Modified
Stats Distance 80 nm / 149 km
Max Altitude 0 ft / 0 m
Waypoints 2
Social Downloads 4
Likes 0
Share VATSIM

Download

Looking for another format? Having issues loading an existing format? Contact us
Advertisement - Login to hide

Notes

Basic altitude profile: - Ascent Rate: 1700ft/min - Ascent Speed: 300kts - Cruise Altitude: 12000ft - Cruise Speed: 420kts - Descent Rate: 900ft/min - Descent Speed: 250kts Options: - Use NATs: yes - Use PACOTS: yes - Use low airways: yes - Use high airways: yes

Route

GVBA GVNP

ID Type Via Altitude Latitude Longitude Leg Dist Tot Dist Heading (true) Name
O GVBA APT - 0 ft / 0 m 16.13653˚ -22.88890˚ - 0 nm - Rabil
O GVNP APT - 0 ft / 0 m 14.93258˚ -23.48919˚ 80 nm 80 nm 206° / 206° PRAIA INTERNATIONAL

Altitude Profile

Advertisement - Login to hide

GVBA

Details ICAO GVBA (BVC)
Name Rabil
Region Cape Verde
Timezone Atlantic/Cape_Verde (UTC-1.0)
Stats Elevation 69 ft / 21 m (AMSL)
Location 16.136532° -22.888897°
Runways 1
Magnetic Variation 9.346° W

METAR

GVBA 161500Z 06020KT 6000 FEW014 BKN200 26/15 Q1016 NOSIG

Decode

TAF

TAF GVBA 161100Z 1612/1718 05016KT 8000 FEW015

Decode

Departure Runways

ID Width Length Bearing (true) Bearing (mag) Surface Threshold Offset Overrun Length
03 98 ft / 30 m 4,025 ft / 1,227 m 16.53° 25.88° Asphalt 0 ft / 0 m 0 ft / 0 m
21 98 ft / 30 m 4,025 ft / 1,227 m 196.53° 205.88° Asphalt 0 ft / 0 m 0 ft / 0 m

GVNP

Details ICAO GVNP (RAI)
Name PRAIA INTERNATIONAL
Region Cape Verde
Timezone Atlantic/Cape_Verde (UTC-1.0)
Stats Elevation 230 ft / 70 m (AMSL)
Location 14.932581° -23.489194°
Runways 2
Magnetic Variation 9.884° W

METAR

GVNP 161500Z 07018KT 6000 FEW018 BKN100 26/16 Q1016 NOSIG

Decode

TAF

TAF GVNP 161100Z 1612/1718 05018KT 8000 FEW016

Decode

Destination Runways

ID Width Length Bearing (true) Bearing (mag) Surface Threshold Offset Overrun Length
03L 98 ft / 30 m 4,188 ft / 1,277 m 21.85° 31.73° Asphalt 0 ft / 0 m 0 ft / 0 m
03R 148 ft / 45 m 6,906 ft / 2,105 m 21.78° 31.66° Asphalt 650 ft / 198 m 0 ft / 0 m
21L 148 ft / 45 m 6,906 ft / 2,105 m 201.78° 211.66° Asphalt 0 ft / 0 m 0 ft / 0 m
21R 98 ft / 30 m 4,188 ft / 1,277 m 201.86° 211.74° Asphalt 0 ft / 0 m 0 ft / 0 m

Popular Alternatives